• Join FlightAware (Why Join?)
  • Login
  • US Flag 
02:19AM EDT


 

Airport Tracker/Info


-or-


 

Live Flight TrackerFlight Track Log ✈ EJA829P ✈ 05-Nov-2013 ✈ KGRR - KJVY

Flight Track Log - Related Links

Times and Time Zones

All times are in EST time to prevent confusion due to time zone crossing. See the EJA829P flight status page for this flight to view local times or setup timezone preferences in your user account.

Time Position Orientation Groundspeed Altitude Reporting Facility
EST Latitude Longitude Course Direction KTS MPH feet Rate Location/Type
07:36AM 42.8747 -85.5681 187° South 204 235 3,000  Level Chicago Center
07:37AM 42.8358 -85.6283 229° Southwest 239 275 4,100 2,100 Climbing Chicago Center
07:38AM 42.7667 -85.6308 182° South 247 284 7,400 2,580 Climbing Chicago Center
07:39AM 42.6950 -85.6406 186° South 255 293 9,400 1,920 Climbing Chicago Center
07:40AM 42.6025 -85.6572 188° South 273 314 11,400 1,920 Climbing Chicago Center
07:41AM 42.4368 -85.5453 187° South  Level Estimated
07:41AM 42.5181 -85.6733 188° South 302 348 13,400  Level Chicago Center
07:42AM 42.4297 -85.6922 189° South 318 366 15,900 2,400 Climbing Chicago Center
07:43AM 42.3400 -85.7097 188° South 323 372 18,400 2,640 Climbing Chicago Center
07:44AM 42.2517 -85.7261 188° South 322 371 21,400 2,820 Climbing Chicago Center
07:45AM 42.1656 -85.7425 188° South 314 361 24,300 2,220 Climbing Chicago Center
07:46AM 42.0750 -85.7606 188° South 327 376 26,000 780 Climbing Chicago Center
07:47AM 41.9642 -85.7831 189° South 371 427 26,000  Level Chicago Center
07:48AM 41.8553 -85.7600 171° South 423 487 26,000  Level Chicago Center
07:49AM 41.7506 -85.6889 153° Southeast 426 490 26,000  Level Chicago Center
07:50AM 41.6258 -85.6047 153° Southeast 427 491 26,000  Level Chicago Center
07:51AM 41.5228 -85.5322 152° Southeast 429 494 26,000  Level Chicago Center
07:52AM 41.4164 -85.5006 167° South 398 458 26,000  Level Chicago Center
07:53AM 41.3164 -85.5058 182° South 362 417 26,000 -540 Level Chicago Center
07:54AM 41.2250 -85.5103 182° South 332 382 24,900 -1,020 Descending Chicago Center
07:55AM 41.1122 -85.5164 182° South 339 390 24,000 -540 Descending Chicago Center
07:56AM 41.0097 -85.5222 182° South 370 426 23,900 -540 Descending Chicago Center
07:57AM 40.9033 -85.5269 182° South 383 441 23,000 -960 Descending Chicago Center
07:58AM 40.7997 -85.5319 182° South 376 433 22,000 -540 Descending Chicago Center
07:59AM 40.7050 -85.5361 182° South 347 399 22,000  Level Chicago Center
08:00AM 40.5961 -85.5425 183° South 353 406 22,000  Level Chicago Center
08:01AM 40.4956 -85.5467 182° South 360 414 22,000  Level Chicago Center
08:02AM 40.3964 -85.5508 182° South 357 411 22,000 -780 Level Chicago Center
08:03AM 40.2950 -85.5569 183° South 365 420 20,400 -1,500 Descending Chicago Center
08:04AM 40.1917 -85.5617 182° South 371 427 18,900 -1,320 Descending Chicago Center
08:05AM 40.0931 -85.5644 181° South 356 410 17,800 -1,440 Descending Chicago Center
08:06AM 39.9792 -85.5700 182° South 342 394 16,000 -1,620 Descending Chicago Center
08:07AM 39.8842 -85.5747 182° South 341 392 14,500 -1,020 Descending Chicago Center
08:08AM 39.7942 -85.5783 182° South 329 379 14,000 -300 Descending Chicago Center
08:09AM 39.7053 -85.5833 182° South 322 371 14,000  Level Chicago Center
08:10AM 39.6150 -85.5864 181° South 323 372 14,000  Level Chicago Center
08:12AM 39.5250 -85.5922 183° South 323 372 14,000  Level Chicago Center
08:13AM 39.4011 -85.5983 182° South 320 368 14,000  Level Indianapolis Center
08:14AM 39.3133 -85.6028 182° South 319 367 14,000  Level Indianapolis Center
08:15AM 39.2328 -85.6058 182° South 300 345 14,000  Level Indianapolis Center
08:16AM 39.1569 -85.6097 182° South 277 319 14,000  Level Indianapolis Center
08:17AM 39.0792 -85.6125 182° South 278 320 14,000  Level Indianapolis Center
08:18AM 39.0033 -85.6311 191° South 277 319 14,000 -720 Level Indianapolis Center
08:19AM 38.9261 -85.6500 191° South 281 323 12,600 -1,920 Descending Indianapolis Center
08:20AM 38.8300 -85.6753 192° South 293 337 10,100 -2,220 Descending Indianapolis Center
08:21AM 38.7572 -85.6883 188° South 268 308 8,100 -1,980 Descending Indianapolis Center
08:22AM 38.6878 -85.7006 188° South 253 291 6,100 -1,920 Descending Indianapolis Center
08:23AM 38.6183 -85.7122 187° South 259 298 4,200 -1,020 Descending Indianapolis Center
08:24AM 38.5378 -85.7261 188° South 258 297 4,000 -240 Descending Indianapolis Center